sensor_id;sensor_type;location;lat;lon;timestamp;P1;durP1;ratioP1;P2;durP2;ratioP2
76540;SDS011;65385;55.772;37.658;2023-04-24T00:00:03;35.95;;;15.32;;
76540;SDS011;65385;55.772;37.658;2023-04-24T00:01:09;32.55;;;15.77;;
76540;SDS011;65385;55.772;37.658;2023-04-24T00:02:10;47.42;;;18.33;;
76540;SDS011;65385;55.772;37.658;2023-04-24T00:03:11;31.70;;;15.60;;
76540;SDS011;65385;55.772;37.658;2023-04-24T00:04:12;31.67;;;12.98;;
76540;SDS011;65385;55.772;37.658;2023-04-24T00:05:14;26.95;;;12.13;;
76540;SDS011;65385;55.772;37.658;2023-04-24T00:06:15;25.23;;;11.52;;
76540;SDS011;65385;55.772;37.658;2023-04-24T00:07:17;29.45;;;12.77;;
76540;SDS011;65385;55.772;37.658;2023-04-24T00:08:18;29.73;;;13.05;;
76540;SDS011;65385;55.772;37.658;2023-04-24T00:09:19;35.78;;;12.30;;
76540;SDS011;65385;55.772;37.658;2023-04-24T00:10:19;31.17;;;13.73;;
76540;SDS011;65385;55.772;37.658;2023-04-24T00:11:21;29.85;;;12.00;;
76540;SDS011;65385;55.772;37.658;2023-04-24T00:12:21;27.75;;;11.82;;
76540;SDS011;65385;55.772;37.658;2023-04-24T00:13:22;26.20;;;11.38;;
76540;SDS011;65385;55.772;37.658;2023-04-24T00:14:23;29.75;;;12.07;;
76540;SDS011;65385;55.772;37.658;2023-04-24T00:15:23;23.25;;;10.25;;
76540;SDS011;65385;55.772;37.658;2023-04-24T00:16:24;23.08;;;9.85;;
76540;SDS011;65385;55.772;37.658;2023-04-24T00:17:25;19.95;;;10.77;;
76540;SDS011;65385;55.772;37.658;2023-04-24T00:18:25;21.88;;;10.90;;
76540;SDS011;65385;55.772;37.658;2023-04-24T00:19:26;23.05;;;10.20;;
76540;SDS011;65385;55.772;37.658;2023-04-24T00:20:27;25.25;;;10.18;;
76540;SDS011;65385;55.772;37.658;2023-04-24T00:21:32;24.52;;;8.80;;
76540;SDS011;65385;55.772;37.658;2023-04-24T00:22:33;23.48;;;8.90;;
76540;SDS011;65385;55.772;37.658;2023-04-24T00:23:34;17.92;;;8.93;;
76540;SDS011;65385;55.772;37.658;2023-04-24T00:24:35;18.17;;;8.07;;
76540;SDS011;65385;55.772;37.658;2023-04-24T00:25:35;19.60;;;8.35;;
76540;SDS011;65385;55.772;37.658;2023-04-24T00:26:36;19.48;;;7.35;;
76540;SDS011;65385;55.772;37.658;2023-04-24T00:27:37;23.65;;;8.77;;
76540;SDS011;65385;55.772;37.658;2023-04-24T00:28:39;24.40;;;8.63;;
76540;SDS011;65385;55.772;37.658;2023-04-24T00:29:39;19.88;;;8.23;;
76540;SDS011;65385;55.772;37.658;2023-04-24T00:30:40;20.60;;;8.93;;
76540;SDS011;65385;55.772;37.658;2023-04-24T00:31:40;19.50;;;7.88;;
76540;SDS011;65385;55.772;37.658;2023-04-24T00:32:41;18.30;;;8.45;;
76540;SDS011;65385;55.772;37.658;2023-04-24T00:33:42;15.73;;;7.63;;
76540;SDS011;65385;55.772;37.658;2023-04-24T00:34:43;19.27;;;7.57;;
76540;SDS011;65385;55.772;37.658;2023-04-24T00:35:43;17.90;;;7.30;;
76540;SDS011;65385;55.772;37.658;2023-04-24T00:36:44;12.07;;;7.15;;
76540;SDS011;65385;55.772;37.658;2023-04-24T00:37:46;18.23;;;7.88;;
76540;SDS011;65385;55.772;37.658;2023-04-24T00:38:47;20.02;;;7.95;;
76540;SDS011;65385;55.772;37.658;2023-04-24T00:39:48;17.13;;;7.55;;
76540;SDS011;65385;55.772;37.658;2023-04-24T00:40:48;19.92;;;7.75;;
76540;SDS011;65385;55.772;37.658;2023-04-24T00:41:50;16.25;;;7.47;;
76540;SDS011;65385;55.772;37.658;2023-04-24T00:42:51;21.83;;;7.80;;
76540;SDS011;65385;55.772;37.658;2023-04-24T00:43:52;16.77;;;6.82;;
76540;SDS011;65385;55.772;37.658;2023-04-24T00:44:53;13.88;;;6.47;;
76540;SDS011;65385;55.772;37.658;2023-04-24T00:45:54;19.67;;;8.00;;
76540;SDS011;65385;55.772;37.658;2023-04-24T00:46:55;16.05;;;7.93;;
76540;SDS011;65385;55.772;37.658;2023-04-24T00:47:56;22.00;;;10.00;;
76540;SDS011;65385;55.772;37.658;2023-04-24T00:48:57;20.02;;;8.30;;
76540;SDS011;65385;55.772;37.658;2023-04-24T00:50:03;19.50;;;8.13;;
76540;SDS011;65385;55.772;37.658;2023-04-24T00:51:04;20.70;;;8.73;;
76540;SDS011;65385;55.772;37.658;2023-04-24T00:52:05;18.02;;;8.43;;
76540;SDS011;65385;55.772;37.658;2023-04-24T00:53:09;22.30;;;8.75;;
76540;SDS011;65385;55.772;37.658;2023-04-24T00:54:09;15.27;;;7.88;;
76540;SDS011;65385;55.772;37.658;2023-04-24T00:55:10;19.75;;;8.68;;
76540;SDS011;65385;55.772;37.658;2023-04-24T00:56:11;21.25;;;8.02;;
76540;SDS011;65385;55.772;37.658;2023-04-24T00:57:12;18.05;;;7.57;;
76540;SDS011;65385;55.772;37.658;2023-04-24T00:58:15;19.92;;;8.13;;
76540;SDS011;65385;55.772;37.658;2023-04-24T00:59:16;19.92;;;8.20;;
76540;SDS011;65385;55.772;37.658;2023-04-24T01:00:18;21.83;;;8.63;;
76540;SDS011;65385;55.772;37.658;2023-04-24T01:01:19;16.45;;;7.72;;
76540;SDS011;65385;55.772;37.658;2023-04-24T01:02:21;20.02;;;8.55;;
76540;SDS011;65385;55.772;37.658;2023-04-24T01:03:24;19.50;;;8.07;;
76540;SDS011;65385;55.772;37.658;2023-04-24T01:04:26;17.48;;;8.30;;
76540;SDS011;65385;55.772;37.658;2023-04-24T01:05:27;20.98;;;8.77;;
76540;SDS011;65385;55.772;37.658;2023-04-24T01:06:29;24.27;;;8.82;;
76540;SDS011;65385;55.772;37.658;2023-04-24T01:07:31;20.42;;;8.60;;
76540;SDS011;65385;55.772;37.658;2023-04-24T01:08:32;17.85;;;9.05;;
76540;SDS011;65385;55.772;37.658;2023-04-24T01:09:33;21.27;;;8.48;;
76540;SDS011;65385;55.772;37.658;2023-04-24T01:10:35;26.63;;;10.95;;
76540;SDS011;65385;55.772;37.658;2023-04-24T01:11:37;19.20;;;8.32;;
76540;SDS011;65385;55.772;37.658;2023-04-24T01:12:39;24.73;;;8.88;;
76540;SDS011;65385;55.772;37.658;2023-04-24T01:13:40;19.10;;;8.50;;
76540;SDS011;65385;55.772;37.658;2023-04-24T01:14:41;21.05;;;8.32;;
76540;SDS011;65385;55.772;37.658;2023-04-24T01:15:42;21.92;;;8.20;;
76540;SDS011;65385;55.772;37.658;2023-04-24T01:16:43;19.25;;;8.77;;
76540;SDS011;65385;55.772;37.658;2023-04-24T01:17:44;19.90;;;7.63;;
76540;SDS011;65385;55.772;37.658;2023-04-24T01:18:45;21.60;;;9.68;;
76540;SDS011;65385;55.772;37.658;2023-04-24T01:19:46;19.17;;;8.65;;
76540;SDS011;65385;55.772;37.658;2023-04-24T01:20:46;21.42;;;8.82;;
76540;SDS011;65385;55.772;37.658;2023-04-24T01:21:50;20.27;;;8.75;;
76540;SDS011;65385;55.772;37.658;2023-04-24T01:22:54;18.45;;;8.65;;
76540;SDS011;65385;55.772;37.658;2023-04-24T01:23:57;22.58;;;8.90;;
76540;SDS011;65385;55.772;37.658;2023-04-24T01:24:57;21.98;;;8.52;;
76540;SDS011;65385;55.772;37.658;2023-04-24T01:25:58;20.00;;;8.70;;
76540;SDS011;65385;55.772;37.658;2023-04-24T01:27:00;19.98;;;9.38;;
76540;SDS011;65385;55.772;37.658;2023-04-24T01:28:01;30.00;;;11.05;;
76540;SDS011;65385;55.772;37.658;2023-04-24T01:29:02;25.92;;;10.30;;
76540;SDS011;65385;55.772;37.658;2023-04-24T01:30:03;22.73;;;9.70;;
76540;SDS011;65385;55.772;37.658;2023-04-24T01:31:07;28.92;;;10.40;;
76540;SDS011;65385;55.772;37.658;2023-04-24T01:32:07;27.50;;;11.82;;
76540;SDS011;65385;55.772;37.658;2023-04-24T01:33:08;24.83;;;10.57;;
76540;SDS011;65385;55.772;37.658;2023-04-24T01:34:09;36.25;;;11.80;;
76540;SDS011;65385;55.772;37.658;2023-04-24T01:35:10;21.65;;;11.38;;
76540;SDS011;65385;55.772;37.658;2023-04-24T01:36:11;23.38;;;10.15;;
76540;SDS011;65385;55.772;37.658;2023-04-24T01:37:12;21.20;;;11.32;;
76540;SDS011;65385;55.772;37.658;2023-04-24T01:38:12;26.67;;;11.63;;
76540;SDS011;65385;55.772;37.658;2023-04-24T01:39:13;27.02;;;11.55;;
76540;SDS011;65385;55.772;37.658;2023-04-24T01:40:15;27.25;;;10.75;;
76540;SDS011;65385;55.772;37.658;2023-04-24T01:41:16;29.48;;;10.63;;
76540;SDS011;65385;55.772;37.658;2023-04-24T01:42:18;22.77;;;10.88;;
76540;SDS011;65385;55.772;37.658;2023-04-24T01:43:21;21.48;;;10.15;;
76540;SDS011;65385;55.772;37.658;2023-04-24T01:44:22;24.60;;;10.68;;
76540;SDS011;65385;55.772;37.658;2023-04-24T01:45:23;23.08;;;11.20;;
76540;SDS011;65385;55.772;37.658;2023-04-24T01:46:24;20.90;;;11.25;;
76540;SDS011;65385;55.772;37.658;2023-04-24T01:47:25;29.50;;;10.82;;
76540;SDS011;65385;55.772;37.658;2023-04-24T01:48:26;30.95;;;11.45;;
76540;SDS011;65385;55.772;37.658;2023-04-24T01:49:27;29.25;;;12.27;;
76540;SDS011;65385;55.772;37.658;2023-04-24T01:50:27;25.80;;;11.30;;
76540;SDS011;65385;55.772;37.658;2023-04-24T01:51:28;24.15;;;12.15;;
76540;SDS011;65385;55.772;37.658;2023-04-24T01:52:30;25.02;;;10.57;;
76540;SDS011;65385;55.772;37.658;2023-04-24T01:53:34;27.02;;;11.50;;
76540;SDS011;65385;55.772;37.658;2023-04-24T01:54:34;28.48;;;11.98;;
76540;SDS011;65385;55.772;37.658;2023-04-24T01:55:36;22.13;;;10.70;;
76540;SDS011;65385;55.772;37.658;2023-04-24T01:56:36;29.13;;;12.00;;
76540;SDS011;65385;55.772;37.658;2023-04-24T01:57:42;25.75;;;12.50;;
76540;SDS011;65385;55.772;37.658;2023-04-24T01:58:43;28.75;;;11.82;;
76540;SDS011;65385;55.772;37.658;2023-04-24T01:59:44;26.23;;;12.68;;
76540;SDS011;65385;55.772;37.658;2023-04-24T02:00:45;26.65;;;12.02;;
76540;SDS011;65385;55.772;37.658;2023-04-24T02:01:46;35.17;;;12.25;;
76540;SDS011;65385;55.772;37.658;2023-04-24T02:02:46;28.55;;;12.48;;
76540;SDS011;65385;55.772;37.658;2023-04-24T02:03:47;27.23;;;13.00;;
76540;SDS011;65385;55.772;37.658;2023-04-24T02:04:47;30.50;;;13.50;;
76540;SDS011;65385;55.772;37.658;2023-04-24T02:05:48;22.88;;;11.50;;
76540;SDS011;65385;55.772;37.658;2023-04-24T02:06:49;29.25;;;12.00;;
76540;SDS011;65385;55.772;37.658;2023-04-24T02:07:49;25.08;;;11.90;;
76540;SDS011;65385;55.772;37.658;2023-04-24T02:08:50;23.35;;;11.15;;
76540;SDS011;65385;55.772;37.658;2023-04-24T02:09:50;27.20;;;12.23;;
76540;SDS011;65385;55.772;37.658;2023-04-24T02:10:51;26.35;;;11.25;;
76540;SDS011;65385;55.772;37.658;2023-04-24T02:11:52;29.50;;;12.20;;
76540;SDS011;65385;55.772;37.658;2023-04-24T02:12:52;25.80;;;11.27;;
76540;SDS011;65385;55.772;37.658;2023-04-24T02:13:53;20.40;;;10.95;;
76540;SDS011;65385;55.772;37.658;2023-04-24T02:14:53;23.80;;;12.32;;
76540;SDS011;65385;55.772;37.658;2023-04-24T02:15:54;22.70;;;11.15;;
76540;SDS011;65385;55.772;37.658;2023-04-24T02:16:57;26.77;;;11.45;;
76540;SDS011;65385;55.772;37.658;2023-04-24T02:17:58;22.73;;;11.68;;
76540;SDS011;65385;55.772;37.658;2023-04-24T02:18:58;30.00;;;12.35;;
76540;SDS011;65385;55.772;37.658;2023-04-24T02:19:59;21.38;;;10.10;;
76540;SDS011;65385;55.772;37.658;2023-04-24T02:21:00;25.67;;;11.50;;
76540;SDS011;65385;55.772;37.658;2023-04-24T02:22:00;22.40;;;10.48;;
76540;SDS011;65385;55.772;37.658;2023-04-24T02:23:01;24.45;;;11.82;;
76540;SDS011;65385;55.772;37.658;2023-04-24T02:24:02;28.10;;;11.68;;
76540;SDS011;65385;55.772;37.658;2023-04-24T02:25:02;27.00;;;11.70;;
76540;SDS011;65385;55.772;37.658;2023-04-24T02:26:08;23.63;;;11.27;;
76540;SDS011;65385;55.772;37.658;2023-04-24T02:27:08;35.10;;;11.63;;
76540;SDS011;65385;55.772;37.658;2023-04-24T02:28:10;34.60;;;12.30;;
76540;SDS011;65385;55.772;37.658;2023-04-24T02:29:10;22.92;;;10.93;;
76540;SDS011;65385;55.772;37.658;2023-04-24T02:30:11;24.58;;;10.95;;
76540;SDS011;65385;55.772;37.658;2023-04-24T02:31:12;28.27;;;11.65;;
76540;SDS011;65385;55.772;37.658;2023-04-24T02:32:12;26.65;;;10.93;;
76540;SDS011;65385;55.772;37.658;2023-04-24T02:33:17;27.90;;;11.40;;
76540;SDS011;65385;55.772;37.658;2023-04-24T02:34:18;21.83;;;10.63;;
76540;SDS011;65385;55.772;37.658;2023-04-24T02:35:18;25.35;;;11.18;;
76540;SDS011;65385;55.772;37.658;2023-04-24T02:36:19;32.90;;;11.40;;
76540;SDS011;65385;55.772;37.658;2023-04-24T02:37:19;21.80;;;10.95;;
76540;SDS011;65385;55.772;37.658;2023-04-24T02:38:20;23.20;;;9.90;;
76540;SDS011;65385;55.772;37.658;2023-04-24T02:39:21;21.35;;;10.40;;
76540;SDS011;65385;55.772;37.658;2023-04-24T02:40:21;25.50;;;10.50;;
76540;SDS011;65385;55.772;37.658;2023-04-24T02:41:22;21.85;;;10.88;;
76540;SDS011;65385;55.772;37.658;2023-04-24T02:42:23;21.80;;;9.55;;
76540;SDS011;65385;55.772;37.658;2023-04-24T02:43:23;27.17;;;10.68;;
76540;SDS011;65385;55.772;37.658;2023-04-24T02:44:24;22.27;;;10.70;;
76540;SDS011;65385;55.772;37.658;2023-04-24T02:45:24;22.40;;;10.00;;
76540;SDS011;65385;55.772;37.658;2023-04-24T02:46:25;25.80;;;11.40;;
76540;SDS011;65385;55.772;37.658;2023-04-24T02:47:26;26.08;;;11.55;;
76540;SDS011;65385;55.772;37.658;2023-04-24T02:48:27;20.90;;;10.48;;
76540;SDS011;65385;55.772;37.658;2023-04-24T02:49:27;24.55;;;11.02;;
76540;SDS011;65385;55.772;37.658;2023-04-24T02:50:29;23.98;;;10.77;;
76540;SDS011;65385;55.772;37.658;2023-04-24T02:51:29;23.65;;;12.02;;
76540;SDS011;65385;55.772;37.658;2023-04-24T02:52:31;26.67;;;10.48;;
76540;SDS011;65385;55.772;37.658;2023-04-24T02:53:32;17.70;;;9.45;;
76540;SDS011;65385;55.772;37.658;2023-04-24T02:54:33;20.40;;;10.30;;
76540;SDS011;65385;55.772;37.658;2023-04-24T02:55:33;18.73;;;10.70;;
76540;SDS011;65385;55.772;37.658;2023-04-24T02:56:34;23.55;;;10.20;;
76540;SDS011;65385;55.772;37.658;2023-04-24T02:57:36;21.40;;;10.02;;
76540;SDS011;65385;55.772;37.658;2023-04-24T02:58:36;24.80;;;9.80;;
76540;SDS011;65385;55.772;37.658;2023-04-24T02:59:37;21.48;;;10.57;;
76540;SDS011;65385;55.772;37.658;2023-04-24T03:00:38;24.98;;;11.43;;
76540;SDS011;65385;55.772;37.658;2023-04-24T03:01:39;23.55;;;9.57;;
76540;SDS011;65385;55.772;37.658;2023-04-24T03:02:40;22.83;;;10.65;;
76540;SDS011;65385;55.772;37.658;2023-04-24T03:03:41;22.05;;;10.32;;
76540;SDS011;65385;55.772;37.658;2023-04-24T03:04:41;21.30;;;9.73;;
76540;SDS011;65385;55.772;37.658;2023-04-24T03:05:43;21.30;;;10.90;;
76540;SDS011;65385;55.772;37.658;2023-04-24T03:06:43;18.00;;;9.73;;
76540;SDS011;65385;55.772;37.658;2023-04-24T03:07:44;21.70;;;10.73;;
76540;SDS011;65385;55.772;37.658;2023-04-24T03:08:45;29.40;;;10.38;;
76540;SDS011;65385;55.772;37.658;2023-04-24T03:09:46;23.02;;;9.60;;
76540;SDS011;65385;55.772;37.658;2023-04-24T03:10:49;21.15;;;10.93;;
76540;SDS011;65385;55.772;37.658;2023-04-24T03:11:50;26.13;;;11.30;;
76540;SDS011;65385;55.772;37.658;2023-04-24T03:12:50;22.17;;;11.32;;
76540;SDS011;65385;55.772;37.658;2023-04-24T03:13:52;21.27;;;11.57;;
76540;SDS011;65385;55.772;37.658;2023-04-24T03:14:54;21.25;;;11.00;;
76540;SDS011;65385;55.772;37.658;2023-04-24T03:15:55;25.45;;;12.02;;
76540;SDS011;65385;55.772;37.658;2023-04-24T03:16:56;23.35;;;10.00;;
76540;SDS011;65385;55.772;37.658;2023-04-24T03:17:56;22.38;;;11.10;;
76540;SDS011;65385;55.772;37.658;2023-04-24T03:18:57;19.15;;;10.73;;
76540;SDS011;65385;55.772;37.658;2023-04-24T03:20:00;21.38;;;10.30;;
76540;SDS011;65385;55.772;37.658;2023-04-24T03:21:04;22.42;;;10.88;;
76540;SDS011;65385;55.772;37.658;2023-04-24T03:22:05;21.30;;;11.43;;
76540;SDS011;65385;55.772;37.658;2023-04-24T03:23:08;27.50;;;11.35;;
76540;SDS011;65385;55.772;37.658;2023-04-24T03:24:09;22.73;;;10.82;;
76540;SDS011;65385;55.772;37.658;2023-04-24T03:25:11;25.08;;;10.23;;
76540;SDS011;65385;55.772;37.658;2023-04-24T03:26:12;21.05;;;10.63;;
76540;SDS011;65385;55.772;37.658;2023-04-24T03:27:23;22.17;;;10.75;;
76540;SDS011;65385;55.772;37.658;2023-04-24T03:28:44;27.30;;;11.02;;
76540;SDS011;65385;55.772;37.658;2023-04-24T03:29:45;25.85;;;11.57;;
76540;SDS011;65385;55.772;37.658;2023-04-24T03:30:46;22.48;;;11.35;;
76540;SDS011;65385;55.772;37.658;2023-04-24T03:31:48;21.52;;;11.35;;
76540;SDS011;65385;55.772;37.658;2023-04-24T03:32:48;20.15;;;10.85;;
76540;SDS011;65385;55.772;37.658;2023-04-24T03:33:54;25.67;;;12.13;;
76540;SDS011;65385;55.772;37.658;2023-04-24T03:34:55;23.73;;;12.20;;
76540;SDS011;65385;55.772;37.658;2023-04-24T03:35:56;20.80;;;11.13;;
76540;SDS011;65385;55.772;37.658;2023-04-24T03:36:57;21.70;;;11.98;;
76540;SDS011;65385;55.772;37.658;2023-04-24T03:37:58;21.73;;;11.93;;
76540;SDS011;65385;55.772;37.658;2023-04-24T03:39:19;34.30;;;12.70;;
76540;SDS011;65385;55.772;37.658;2023-04-24T03:40:26;22.02;;;11.25;;
76540;SDS011;65385;55.772;37.658;2023-04-24T03:41:26;21.63;;;11.25;;
76540;SDS011;65385;55.772;37.658;2023-04-24T03:42:30;22.45;;;11.65;;
76540;SDS011;65385;55.772;37.658;2023-04-24T03:43:30;25.23;;;11.65;;
76540;SDS011;65385;55.772;37.658;2023-04-24T03:44:35;23.88;;;12.05;;
76540;SDS011;65385;55.772;37.658;2023-04-24T03:45:36;21.58;;;11.07;;
76540;SDS011;65385;55.772;37.658;2023-04-24T03:46:37;25.13;;;12.48;;
76540;SDS011;65385;55.772;37.658;2023-04-24T03:47:38;24.13;;;11.98;;
76540;SDS011;65385;55.772;37.658;2023-04-24T03:48:39;26.02;;;12.43;;
76540;SDS011;65385;55.772;37.658;2023-04-24T03:49:42;21.17;;;10.88;;
76540;SDS011;65385;55.772;37.658;2023-04-24T03:50:44;29.35;;;11.85;;
76540;SDS011;65385;55.772;37.658;2023-04-24T03:51:46;24.30;;;11.48;;
76540;SDS011;65385;55.772;37.658;2023-04-24T03:52:59;25.15;;;11.93;;
76540;SDS011;65385;55.772;37.658;2023-04-24T03:54:09;23.92;;;12.88;;
76540;SDS011;65385;55.772;37.658;2023-04-24T03:55:13;22.15;;;11.82;;
76540;SDS011;65385;55.772;37.658;2023-04-24T03:56:18;22.63;;;12.63;;
76540;SDS011;65385;55.772;37.658;2023-04-24T03:57:20;25.40;;;12.02;;
76540;SDS011;65385;55.772;37.658;2023-04-24T03:58:34;20.55;;;11.93;;
76540;SDS011;65385;55.772;37.658;2023-04-24T03:59:35;24.67;;;13.20;;
76540;SDS011;65385;55.772;37.658;2023-04-24T04:00:44;28.00;;;13.65;;
76540;SDS011;65385;55.772;37.658;2023-04-24T04:02:11;24.70;;;13.55;;
76540;SDS011;65385;55.772;37.658;2023-04-24T04:03:11;26.77;;;13.43;;
76540;SDS011;65385;55.772;37.658;2023-04-24T04:04:13;27.60;;;13.85;;
76540;SDS011;65385;55.772;37.658;2023-04-24T04:05:15;28.80;;;13.45;;
76540;SDS011;65385;55.772;37.658;2023-04-24T04:06:15;25.88;;;13.60;;
76540;SDS011;65385;55.772;37.658;2023-04-24T04:07:16;23.88;;;12.25;;
76540;SDS011;65385;55.772;37.658;2023-04-24T04:08:17;24.40;;;12.80;;
76540;SDS011;65385;55.772;37.658;2023-04-24T04:09:18;22.52;;;13.05;;
76540;SDS011;65385;55.772;37.658;2023-04-24T04:10:19;22.35;;;11.98;;
76540;SDS011;65385;55.772;37.658;2023-04-24T04:11:20;30.13;;;14.13;;
76540;SDS011;65385;55.772;37.658;2023-04-24T04:12:21;30.05;;;13.07;;
76540;SDS011;65385;55.772;37.658;2023-04-24T04:13:21;23.48;;;12.63;;
76540;SDS011;65385;55.772;37.658;2023-04-24T04:14:23;26.98;;;12.52;;
76540;SDS011;65385;55.772;37.658;2023-04-24T04:15:23;25.52;;;13.00;;
76540;SDS011;65385;55.772;37.658;2023-04-24T04:16:25;28.55;;;13.30;;
76540;SDS011;65385;55.772;37.658;2023-04-24T04:17:30;26.60;;;14.57;;
76540;SDS011;65385;55.772;37.658;2023-04-24T04:18:34;22.90;;;12.63;;
76540;SDS011;65385;55.772;37.658;2023-04-24T04:19:35;28.63;;;13.68;;
76540;SDS011;65385;55.772;37.658;2023-04-24T04:20:36;22.92;;;13.75;;
76540;SDS011;65385;55.772;37.658;2023-04-24T04:21:37;28.17;;;13.93;;
76540;SDS011;65385;55.772;37.658;2023-04-24T04:22:57;21.35;;;13.27;;
76540;SDS011;65385;55.772;37.658;2023-04-24T04:24:08;24.00;;;14.00;;
76540;SDS011;65385;55.772;37.658;2023-04-24T04:25:13;29.67;;;15.27;;
76540;SDS011;65385;55.772;37.658;2023-04-24T04:26:14;33.33;;;15.35;;
76540;SDS011;65385;55.772;37.658;2023-04-24T04:27:31;24.65;;;15.07;;
76540;SDS011;65385;55.772;37.658;2023-04-24T04:28:39;29.13;;;16.85;;
76540;SDS011;65385;55.772;37.658;2023-04-24T04:29:41;24.13;;;15.27;;
76540;SDS011;65385;55.772;37.658;2023-04-24T04:30:44;30.02;;;17.38;;
76540;SDS011;65385;55.772;37.658;2023-04-24T04:31:45;32.10;;;15.70;;
76540;SDS011;65385;55.772;37.658;2023-04-24T04:32:47;30.48;;;16.25;;
76540;SDS011;65385;55.772;37.658;2023-04-24T04:33:48;28.90;;;17.35;;
76540;SDS011;65385;55.772;37.658;2023-04-24T04:34:49;25.23;;;16.65;;
76540;SDS011;65385;55.772;37.658;2023-04-24T04:35:50;29.50;;;16.02;;
76540;SDS011;65385;55.772;37.658;2023-04-24T04:36:52;30.55;;;14.88;;
76540;SDS011;65385;55.772;37.658;2023-04-24T04:38:11;24.70;;;12.15;;
76540;SDS011;65385;55.772;37.658;2023-04-24T04:39:22;31.52;;;15.50;;
76540;SDS011;65385;55.772;37.658;2023-04-24T04:40:46;25.65;;;13.95;;
76540;SDS011;65385;55.772;37.658;2023-04-24T04:41:47;23.52;;;12.68;;
76540;SDS011;65385;55.772;37.658;2023-04-24T04:42:50;26.88;;;14.73;;
76540;SDS011;65385;55.772;37.658;2023-04-24T04:43:54;26.75;;;13.07;;
76540;SDS011;65385;55.772;37.658;2023-04-24T04:44:55;26.65;;;13.27;;
76540;SDS011;65385;55.772;37.658;2023-04-24T04:46:04;25.33;;;13.10;;
76540;SDS011;65385;55.772;37.658;2023-04-24T04:47:27;24.90;;;11.77;;
76540;SDS011;65385;55.772;37.658;2023-04-24T04:48:30;26.70;;;12.75;;
76540;SDS011;65385;55.772;37.658;2023-04-24T04:49:34;23.95;;;12.60;;
76540;SDS011;65385;55.772;37.658;2023-04-24T04:50:35;21.40;;;11.70;;
76540;SDS011;65385;55.772;37.658;2023-04-24T04:51:40;24.20;;;11.52;;
76540;SDS011;65385;55.772;37.658;2023-04-24T04:52:41;24.80;;;10.65;;
76540;SDS011;65385;55.772;37.658;2023-04-24T04:53:53;22.65;;;11.00;;
76540;SDS011;65385;55.772;37.658;2023-04-24T04:54:53;20.42;;;11.80;;
76540;SDS011;65385;55.772;37.658;2023-04-24T04:55:56;25.08;;;11.88;;
76540;SDS011;65385;55.772;37.658;2023-04-24T04:57:01;25.67;;;12.50;;
76540;SDS011;65385;55.772;37.658;2023-04-24T04:58:02;20.67;;;11.43;;
76540;SDS011;65385;55.772;37.658;2023-04-24T04:59:03;27.75;;;13.38;;
76540;SDS011;65385;55.772;37.658;2023-04-24T05:00:04;22.83;;;11.20;;
76540;SDS011;65385;55.772;37.658;2023-04-24T05:01:15;22.00;;;9.85;;
76540;SDS011;65385;55.772;37.658;2023-04-24T05:02:19;19.48;;;10.10;;
76540;SDS011;65385;55.772;37.658;2023-04-24T05:03:20;20.38;;;10.88;;
76540;SDS011;65385;55.772;37.658;2023-04-24T05:04:23;19.42;;;10.00;;
76540;SDS011;65385;55.772;37.658;2023-04-24T05:05:24;18.70;;;10.75;;
76540;SDS011;65385;55.772;37.658;2023-04-24T05:06:25;20.13;;;10.68;;
76540;SDS011;65385;55.772;37.658;2023-04-24T05:07:28;21.65;;;10.15;;
76540;SDS011;65385;55.772;37.658;2023-04-24T05:08:29;23.48;;;11.45;;
76540;SDS011;65385;55.772;37.658;2023-04-24T05:09:30;19.75;;;10.75;;
76540;SDS011;65385;55.772;37.658;2023-04-24T05:10:35;19.70;;;10.32;;
76540;SDS011;65385;55.772;37.658;2023-04-24T05:11:37;27.17;;;11.73;;
76540;SDS011;65385;55.772;37.658;2023-04-24T05:12:38;24.40;;;12.65;;
76540;SDS011;65385;55.772;37.658;2023-04-24T05:13:38;24.10;;;11.98;;
76540;SDS011;65385;55.772;37.658;2023-04-24T05:14:42;22.40;;;12.65;;
76540;SDS011;65385;55.772;37.658;2023-04-24T05:15:45;23.38;;;12.63;;
76540;SDS011;65385;55.772;37.658;2023-04-24T05:16:48;24.10;;;12.18;;
76540;SDS011;65385;55.772;37.658;2023-04-24T05:17:50;26.92;;;12.80;;
76540;SDS011;65385;55.772;37.658;2023-04-24T05:18:51;26.67;;;12.93;;
76540;SDS011;65385;55.772;37.658;2023-04-24T05:19:56;21.45;;;12.25;;
76540;SDS011;65385;55.772;37.658;2023-04-24T05:20:56;29.20;;;12.57;;
76540;SDS011;65385;55.772;37.658;2023-04-24T05:21:58;24.58;;;12.77;;
76540;SDS011;65385;55.772;37.658;2023-04-24T05:22:59;25.17;;;12.68;;
76540;SDS011;65385;55.772;37.658;2023-04-24T05:24:00;21.55;;;10.93;;
76540;SDS011;65385;55.772;37.658;2023-04-24T05:25:20;27.73;;;13.02;;
76540;SDS011;65385;55.772;37.658;2023-04-24T05:26:29;24.33;;;12.98;;
76540;SDS011;65385;55.772;37.658;2023-04-24T05:27:32;22.80;;;12.15;;
76540;SDS011;65385;55.772;37.658;2023-04-24T05:28:33;28.08;;;13.40;;
76540;SDS011;65385;55.772;37.658;2023-04-24T05:29:40;24.75;;;12.55;;
76540;SDS011;65385;55.772;37.658;2023-04-24T05:30:42;26.63;;;14.18;;
76540;SDS011;65385;55.772;37.658;2023-04-24T05:31:43;25.40;;;14.00;;
76540;SDS011;65385;55.772;37.658;2023-04-24T05:32:43;26.23;;;12.73;;
76540;SDS011;65385;55.772;37.658;2023-04-24T05:33:44;26.98;;;13.48;;
76540;SDS011;65385;55.772;37.658;2023-04-24T05:34:44;29.60;;;13.57;;
76540;SDS011;65385;55.772;37.658;2023-04-24T05:35:45;26.40;;;13.13;;
76540;SDS011;65385;55.772;37.658;2023-04-24T05:36:46;28.98;;;14.10;;
76540;SDS011;65385;55.772;37.658;2023-04-24T05:37:48;26.75;;;13.25;;
76540;SDS011;65385;55.772;37.658;2023-04-24T05:38:49;28.08;;;12.90;;
76540;SDS011;65385;55.772;37.658;2023-04-24T05:39:50;22.85;;;12.55;;
76540;SDS011;65385;55.772;37.658;2023-04-24T05:40:50;21.58;;;13.35;;
76540;SDS011;65385;55.772;37.658;2023-04-24T05:41:51;27.30;;;12.70;;
76540;SDS011;65385;55.772;37.658;2023-04-24T05:42:52;27.00;;;13.18;;
76540;SDS011;65385;55.772;37.658;2023-04-24T05:43:53;21.08;;;11.57;;
76540;SDS011;65385;55.772;37.658;2023-04-24T05:44:55;18.77;;;10.88;;
76540;SDS011;65385;55.772;37.658;2023-04-24T05:45:55;22.98;;;10.95;;
76540;SDS011;65385;55.772;37.658;2023-04-24T05:46:56;25.42;;;12.60;;
76540;SDS011;65385;55.772;37.658;2023-04-24T05:47:57;19.77;;;12.60;;
76540;SDS011;65385;55.772;37.658;2023-04-24T05:48:58;28.00;;;13.20;;
76540;SDS011;65385;55.772;37.658;2023-04-24T05:49:58;20.25;;;11.23;;
76540;SDS011;65385;55.772;37.658;2023-04-24T05:50:59;23.95;;;13.07;;
76540;SDS011;65385;55.772;37.658;2023-04-24T05:52:00;25.02;;;12.38;;
76540;SDS011;65385;55.772;37.658;2023-04-24T05:53:00;20.38;;;11.52;;
76540;SDS011;65385;55.772;37.658;2023-04-24T05:54:07;21.63;;;11.35;;
76540;SDS011;65385;55.772;37.658;2023-04-24T05:55:08;21.92;;;11.57;;
76540;SDS011;65385;55.772;37.658;2023-04-24T05:56:11;18.75;;;10.98;;
76540;SDS011;65385;55.772;37.658;2023-04-24T05:57:12;23.38;;;11.82;;
76540;SDS011;65385;55.772;37.658;2023-04-24T05:58:28;19.60;;;10.35;;
76540;SDS011;65385;55.772;37.658;2023-04-24T05:59:29;20.13;;;11.13;;